Time;durP1;ratioP1;P1;durP2;ratioP2;P2;SDS_P1;SDS_P2;PMS_P1;PMS_P2;Temp;Humidity;BMP_temperature;BMP_pressure;BME280_temperature;BME280_humidity;BME280_pressure;Samples;Min_cycle;Max_cycle;Signal;HPM_P1;HPM_P2
2022/10/20 00:01:22;;;;;;;49.63;14.98;;;6.80;99.90;;;;;;5037941;28;20036;-64
2022/10/20 00:03:49;;;;;;;42.88;14.98;;;6.80;99.90;;;;;;5036575;28;20059;-64
2022/10/20 00:06:21;;;;;;;44.97;15.35;;;6.70;99.90;;;;;;5064385;28;20095;-64
2022/10/20 00:08:47;;;;;;;;;;;6.60;99.90;;;;;;5070982;28;20396;-65
2022/10/20 00:11:16;;;;;;;53.28;15.07;;;6.60;99.90;;;;;;5031892;28;19927;-64
2022/10/20 00:13:44;;;;;;;50.47;15.88;;;6.60;99.90;;;;;;5032254;28;20040;-64
2022/10/20 00:16:09;;;;;;;48.63;16.13;;;6.50;99.90;;;;;;5033645;28;20048;-64
2022/10/20 00:18:35;;;;;;;45.10;15.02;;;6.50;99.90;;;;;;5040785;28;20033;-64
2022/10/20 00:21:08;;;;;;;53.78;16.02;;;6.60;99.90;;;;;;5032830;28;20037;-64
2022/10/20 00:23:34;;;;;;;50.38;15.00;;;6.60;99.90;;;;;;5035193;28;20128;-64
2022/10/20 00:26:06;;;;;;;49.85;15.93;;;6.50;99.90;;;;;;5034685;28;20171;-64
2022/10/20 00:28:32;;;;;;;45.88;15.73;;;6.50;99.90;;;;;;5038387;28;20102;-64
2022/10/20 00:30:57;;;;;;;48.45;15.45;;;6.50;99.90;;;;;;5042236;28;20047;-64
2022/10/20 00:33:24;;;;;;;47.90;16.23;;;6.50;99.90;;;;;;5070588;28;20048;-64
2022/10/20 00:35:50;;;;;;;50.50;15.63;;;6.40;99.90;;;;;;5043269;28;20533;-64
2022/10/20 00:38:16;;;;;;;43.95;15.20;;;6.40;99.90;;;;;;5039900;28;20032;-64
2022/10/20 00:40:41;;;;;;;47.47;15.25;;;6.40;99.90;;;;;;5038042;28;20033;-64
2022/10/20 00:43:12;;;;;;;49.45;15.95;;;6.40;99.90;;;;;;5039732;28;20167;-65
2022/10/20 00:45:40;;;;;;;42.72;14.60;;;6.40;99.90;;;;;;5044856;28;20041;-64
2022/10/20 00:48:13;;;;;;;45.30;15.13;;;6.30;99.90;;;;;;5040466;28;20479;-64
2022/10/20 00:50:45;;;;;;;43.45;15.52;;;6.40;99.90;;;;;;5040731;28;20037;-64
2022/10/20 00:53:11;;;;;;;49.13;15.32;;;6.30;99.90;;;;;;5074471;28;20547;-64
2022/10/20 00:55:41;;;;;;;50.45;15.50;;;6.30;99.90;;;;;;5036405;28;20135;-64
2022/10/20 00:58:07;;;;;;;43.83;15.50;;;6.30;99.90;;;;;;5024554;28;20443;-64
2022/10/20 01:00:33;;;;;;;45.85;15.07;;;6.30;99.90;;;;;;5039744;28;20099;-64
2022/10/20 01:03:00;;;;;;;43.92;15.35;;;6.30;99.90;;;;;;5033121;28;20163;-64
2022/10/20 01:05:27;;;;;;;43.90;14.82;;;6.30;99.90;;;;;;5036857;28;20442;-63
2022/10/20 01:07:53;;;;;;;43.33;15.55;;;6.30;99.90;;;;;;5039586;28;20069;-64
2022/10/20 01:10:22;;;;;;;48.38;15.02;;;6.20;99.90;;;;;;5039411;28;20628;-64
2022/10/20 01:12:56;;;;;;;47.55;15.35;;;6.30;99.90;;;;;;5036828;28;20049;-64
2022/10/20 01:15:30;;;;;;;49.15;14.85;;;6.30;99.90;;;;;;5034156;28;20033;-64
2022/10/20 01:17:59;;;;;;;46.50;15.13;;;6.20;99.90;;;;;;5041272;28;20041;-65
2022/10/20 01:20:46;;;;;;;54.20;15.30;;;6.30;99.90;;;;;;5036948;28;20041;-64
2022/10/20 01:23:27;;;;;;;47.78;15.27;;;6.30;99.90;;;;;;5035212;28;20036;-64
2022/10/20 01:26:28;;;;;;;42.55;14.52;;;6.30;99.90;;;;;;5067051;28;20043;-65
2022/10/20 01:29:05;;;;;;;47.15;15.05;;;6.30;99.90;;;;;;5037379;28;20131;-64
2022/10/20 01:31:42;;;;;;;46.55;15.43;;;6.30;99.90;;;;;;5039240;28;20041;-65
2022/10/20 01:34:21;;;;;;;47.70;15.23;;;6.20;99.90;;;;;;5038216;28;20045;-64
2022/10/20 01:36:56;;;;;;;43.25;14.95;;;6.20;99.90;;;;;;5070256;28;20045;-64
2022/10/20 01:39:33;;;;;;;53.03;15.10;;;6.30;99.90;;;;;;5034589;28;20067;-64
2022/10/20 01:42:10;;;;;;;54.08;16.17;;;6.30;99.90;;;;;;5068351;28;20057;-64
2022/10/20 01:44:37;;;;;;;49.85;15.25;;;6.20;99.90;;;;;;5037624;28;20373;-64
2022/10/20 01:47:04;;;;;;;42.88;14.82;;;6.30;99.90;;;;;;5039922;28;20067;-64
2022/10/20 01:49:30;;;;;;;41.63;14.48;;;6.30;99.90;;;;;;5034699;28;20105;-64
2022/10/20 01:51:56;;;;;;;48.88;15.48;;;6.30;99.90;;;;;;5051825;28;20540;-64
2022/10/20 01:54:23;;;;;;;43.30;14.15;;;6.20;99.90;;;;;;5037898;28;20399;-64
2022/10/20 01:57:08;;;;;;;47.20;15.45;;;6.20;99.90;;;;;;5037165;28;20037;-64
2022/10/20 01:59:58;;;;;;;44.40;14.93;;;6.20;99.90;;;;;;5042125;28;20495;-64
2022/10/20 02:02:32;;;;;;;46.28;14.95;;;6.30;99.90;;;;;;5037165;28;20080;-64
2022/10/20 02:05:13;;;;;;;49.70;15.40;;;6.30;99.90;;;;;;5040010;28;20496;-64
2022/10/20 02:07:40;;;;;;;46.55;15.07;;;6.30;99.90;;;;;;5032588;28;20037;-64
2022/10/20 02:10:19;;;;;;;44.50;15.60;;;6.30;99.90;;;;;;5036529;28;20392;-64
2022/10/20 02:12:51;;;;;;;47.08;14.60;;;6.20;99.90;;;;;;5036490;28;20519;-65
2022/10/20 02:15:22;;;;;;;48.75;15.70;;;6.20;99.90;;;;;;5036084;28;20044;-64
2022/10/20 02:17:52;;;;;;;51.40;15.93;;;6.20;99.90;;;;;;5040706;28;20047;-64
2022/10/20 02:20:18;;;;;;;50.17;16.02;;;6.20;99.90;;;;;;5040670;28;20516;-65
2022/10/20 02:22:44;;;;;;;48.67;15.00;;;6.20;99.90;;;;;;5034196;28;20404;-65
2022/10/20 02:25:11;;;;;;;51.05;15.43;;;6.20;99.90;;;;;;5070670;28;20047;-64
2022/10/20 02:27:41;;;;;;;43.17;15.43;;;6.20;99.90;;;;;;5034583;28;20037;-65
2022/10/20 02:30:10;;;;;;;44.35;14.52;;;6.10;99.90;;;;;;5024832;28;20037;-64
2022/10/20 02:32:37;;;;;;;42.95;14.40;;;6.20;99.90;;;;;;5036681;28;20052;-64
2022/10/20 02:35:05;;;;;;;45.45;15.18;;;6.10;99.90;;;;;;5035591;28;20060;-65
2022/10/20 02:37:31;;;;;;;46.33;15.00;;;6.10;99.90;;;;;;5064437;28;20110;-65
2022/10/20 02:39:57;;;;;;;48.58;14.88;;;6.10;99.90;;;;;;5057328;28;20033;-64
2022/10/20 02:42:22;;;;;;;51.35;15.15;;;6.10;99.90;;;;;;5065710;28;20084;-65
2022/10/20 02:44:48;;;;;;;47.20;15.45;;;6.10;99.90;;;;;;5035721;28;20068;-65
2022/10/20 02:47:13;;;;;;;47.65;14.75;;;6.10;99.90;;;;;;5020390;28;20036;-65
2022/10/20 02:49:39;;;;;;;51.05;15.20;;;6.10;99.90;;;;;;5035730;28;20515;-64
2022/10/20 02:52:05;;;;;;;44.22;15.20;;;6.10;99.90;;;;;;5037482;28;20041;-64
2022/10/20 02:54:30;;;;;;;47.35;14.73;;;6.10;99.90;;;;;;5034298;28;20033;-65
2022/10/20 02:56:56;;;;;;;48.97;15.65;;;6.10;99.90;;;;;;5035287;28;20476;-64
2022/10/20 02:59:21;;;;;;;49.97;14.65;;;6.10;99.90;;;;;;5039379;28;20037;-64
2022/10/20 03:01:47;;;;;;;47.85;15.38;;;6.00;99.90;;;;;;5038292;28;20591;-64
2022/10/20 03:04:13;;;;;;;51.80;15.60;;;6.00;99.90;;;;;;5032857;28;20093;-64
2022/10/20 03:06:40;;;;;;;46.95;14.88;;;6.00;99.90;;;;;;5051157;28;20094;-64
2022/10/20 03:09:06;;;;;;;50.53;14.93;;;6.00;99.90;;;;;;5037772;28;20102;-65
2022/10/20 03:11:31;;;;;;;56.97;16.25;;;6.10;99.90;;;;;;5037209;28;20044;-64
2022/10/20 03:13:57;;;;;;;47.92;15.23;;;6.00;99.90;;;;;;5037594;28;20049;-65
2022/10/20 03:16:22;;;;;;;53.38;16.17;;;6.00;99.90;;;;;;5036681;28;20407;-64
2022/10/20 03:18:48;;;;;;;52.53;15.88;;;6.10;99.90;;;;;;5036231;28;20041;-64
2022/10/20 03:21:13;;;;;;;49.60;16.52;;;6.00;99.90;;;;;;5032899;28;20084;-64
2022/10/20 03:23:39;;;;;;;56.58;16.52;;;6.00;99.90;;;;;;5036768;28;20103;-64
2022/10/20 03:26:06;;;;;;;60.17;16.67;;;6.00;99.90;;;;;;5030213;28;20041;-65
2022/10/20 03:28:32;;;;;;;59.97;17.20;;;6.00;99.90;;;;;;5067358;28;20098;-64
2022/10/20 03:30:58;;;;;;;49.55;16.10;;;6.00;99.90;;;;;;5040199;28;20438;-65
2022/10/20 03:33:23;;;;;;;47.65;16.42;;;6.10;99.90;;;;;;5034800;28;20064;-64
2022/10/20 03:35:49;;;;;;;58.13;17.17;;;6.00;99.90;;;;;;5035471;28;20541;-63
2022/10/20 03:38:15;;;;;;;57.75;18.27;;;6.10;99.90;;;;;;5031686;28;20496;-64
2022/10/20 03:40:41;;;;;;;63.08;17.67;;;6.00;99.90;;;;;;5038847;28;20495;-64
2022/10/20 03:43:06;;;;;;;57.92;17.80;;;6.10;99.90;;;;;;5036413;28;20569;-65
2022/10/20 03:45:32;;;;;;;50.40;16.90;;;6.10;99.90;;;;;;5039771;28;20345;-65
2022/10/20 03:47:57;;;;;;;57.08;17.48;;;6.10;99.90;;;;;;5039156;28;20037;-65
2022/10/20 03:50:23;;;;;;;57.95;17.35;;;6.10;99.90;;;;;;5034762;28;20037;-64
2022/10/20 03:52:49;;;;;;;48.33;16.90;;;6.10;99.90;;;;;;5034096;28;20072;-65
2022/10/20 03:55:16;;;;;;;60.63;18.13;;;6.10;99.90;;;;;;5034530;28;20049;-64
2022/10/20 03:57:42;;;;;;;57.78;17.73;;;6.20;99.90;;;;;;5031089;28;20045;-64
2022/10/20 04:00:08;;;;;;;54.25;17.92;;;6.20;99.90;;;;;;5032357;28;20506;-64
2022/10/20 04:02:37;;;;;;;66.53;19.52;;;6.20;99.90;;;;;;5035620;28;20194;-65
2022/10/20 04:05:04;;;;;;;59.63;18.70;;;6.20;99.90;;;;;;5041158;28;20060;-64
2022/10/20 04:07:30;;;;;;;67.53;19.13;;;6.20;99.90;;;;;;5037094;28;20531;-64
2022/10/20 04:09:56;;;;;;;62.70;19.42;;;6.20;99.90;;;;;;5037116;28;20060;-64
2022/10/20 04:12:22;;;;;;;57.00;18.83;;;6.20;99.90;;;;;;5038932;28;20045;-64
2022/10/20 04:14:48;;;;;;;62.10;20.27;;;6.30;99.90;;;;;;5042335;28;20474;-65
2022/10/20 04:17:13;;;;;;;66.95;20.35;;;6.20;99.90;;;;;;5039419;28;20055;-64
2022/10/20 04:19:39;;;;;;;67.63;20.02;;;6.20;99.90;;;;;;5040184;28;20051;-64
2022/10/20 04:22:05;;;;;;;68.20;21.08;;;6.30;99.90;;;;;;5035308;28;20041;-64
2022/10/20 04:24:30;;;;;;;70.35;20.63;;;6.30;99.90;;;;;;5038752;28;20063;-64
2022/10/20 04:26:56;;;;;;;67.43;20.63;;;6.20;99.90;;;;;;5041210;28;20468;-64
2022/10/20 04:29:22;;;;;;;74.20;21.85;;;6.40;99.90;;;;;;5069214;28;20080;-64
2022/10/20 04:31:47;;;;;;;68.07;21.25;;;6.40;99.90;;;;;;5037700;28;20029;-64
2022/10/20 04:34:13;;;;;;;67.55;21.95;;;6.40;99.90;;;;;;5035416;28;20055;-64
2022/10/20 04:36:39;;;;;;;74.07;21.52;;;6.40;99.90;;;;;;5037987;28;20037;-64
2022/10/20 04:39:05;;;;;;;74.57;21.38;;;6.30;99.90;;;;;;5043318;28;20056;-64
2022/10/20 04:41:31;;;;;;;72.55;21.80;;;6.30;99.90;;;;;;5046240;28;20095;-64
2022/10/20 04:43:56;;;;;;;74.28;21.83;;;6.40;99.90;;;;;;5042450;28;20443;-64
2022/10/20 04:46:22;;;;;;;73.35;21.50;;;6.30;99.90;;;;;;5041157;28;20990;-64
2022/10/20 04:48:47;;;;;;;78.65;22.30;;;6.20;99.90;;;;;;5038054;28;20464;-64
2022/10/20 04:51:14;;;;;;;74.50;22.40;;;6.30;99.90;;;;;;5043383;28;20033;-64
2022/10/20 04:53:40;;;;;;;71.22;22.52;;;6.30;99.90;;;;;;5038633;28;20091;-64
2022/10/20 04:56:07;;;;;;;79.07;21.60;;;6.30;99.90;;;;;;5076086;28;20571;-64
2022/10/20 04:58:33;;;;;;;71.50;22.25;;;6.30;99.90;;;;;;5034160;28;20095;-64
2022/10/20 05:01:08;;;;;;;77.38;23.35;;;6.20;99.90;;;;;;5039850;28;20055;-64
2022/10/20 05:03:35;;;;;;;77.78;23.83;;;6.20;99.90;;;;;;5031617;28;20044;-65
2022/10/20 05:06:15;;;;;;;88.45;24.52;;;6.20;99.90;;;;;;5036170;28;20079;-64
2022/10/20 05:08:43;;;;;;;78.57;24.35;;;6.20;99.90;;;;;;5041621;28;20099;-65
2022/10/20 05:11:08;;;;;;;75.28;23.60;;;6.20;99.90;;;;;;5031157;28;20040;-65
2022/10/20 05:13:34;;;;;;;80.05;24.98;;;6.20;99.90;;;;;;5069500;28;20541;-65
2022/10/20 05:16:00;;;;;;;85.93;25.73;;;6.20;99.90;;;;;;5033063;28;20038;-64
2022/10/20 05:18:26;;;;;;;84.32;26.15;;;6.20;99.90;;;;;;5033120;28;20044;-64
2022/10/20 05:20:52;;;;;;;92.07;26.15;;;6.20;99.90;;;;;;5031494;28;20591;-64
2022/10/20 05:23:17;;;;;;;87.07;26.08;;;6.20;99.90;;;;;;5032273;28;20155;-65
2022/10/20 05:25:43;;;;;;;92.72;27.88;;;6.20;99.90;;;;;;5038173;28;20503;-64
2022/10/20 05:28:08;;;;;;;90.90;26.65;;;6.20;99.90;;;;;;5036732;28;20087;-65
2022/10/20 05:30:35;;;;;;;91.22;27.92;;;6.20;99.90;;;;;;5039094;28;20045;-66
2022/10/20 05:33:00;;;;;;;95.53;26.23;;;6.20;99.90;;;;;;5032114;28;20518;-65
2022/10/20 05:35:30;;;;;;;94.97;26.88;;;6.20;99.90;;;;;;5036139;28;20029;-65
2022/10/20 05:37:55;;;;;;;88.07;27.40;;;6.20;99.90;;;;;;5051432;28;20082;-64
2022/10/20 05:40:22;;;;;;;99.22;28.52;;;6.30;99.90;;;;;;5040463;28;20044;-64
2022/10/20 05:42:47;;;;;;;97.07;27.42;;;6.20;99.90;;;;;;5033109;28;20046;-64
2022/10/20 05:45:13;;;;;;;105.65;28.10;;;6.20;99.90;;;;;;5071065;28;20048;-64
2022/10/20 05:47:39;;;;;;;94.07;28.05;;;6.20;99.90;;;;;;5040239;28;20078;-64
2022/10/20 05:50:05;;;;;;;97.18;27.15;;;6.30;99.90;;;;;;5032578;28;20032;-65
2022/10/20 05:52:33;;;;;;;97.85;27.65;;;6.30;99.90;;;;;;5038338;28;20041;-67
2022/10/20 05:54:59;;;;;;;99.10;28.73;;;6.30;99.90;;;;;;5040503;28;20075;-66
2022/10/20 05:57:24;;;;;;;101.82;28.73;;;6.20;99.90;;;;;;5040179;28;20041;-67
2022/10/20 05:59:50;;;;;;;102.95;29.23;;;6.30;99.90;;;;;;5039021;28;20568;-66
2022/10/20 06:02:16;;;;;;;97.50;27.88;;;6.20;99.90;;;;;;5046991;28;20059;-66
2022/10/20 06:04:41;;;;;;;104.63;28.92;;;6.20;99.90;;;;;;5067491;28;20080;-66
2022/10/20 06:07:09;;;;;;;105.32;29.45;;;6.20;99.90;;;;;;5045115;28;20045;-66
2022/10/20 06:09:36;;;;;;;103.88;30.08;;;6.30;99.90;;;;;;5048504;28;20045;-67
2022/10/20 06:12:02;;;;;;;104.03;29.02;;;6.30;99.90;;;;;;5031975;28;20116;-66
2022/10/20 06:14:28;;;;;;;108.35;29.40;;;6.20;99.90;;;;;;5049284;28;20072;-67
2022/10/20 06:16:54;;;;;;;99.22;29.13;;;6.20;99.90;;;;;;5043874;28;20090;-67
2022/10/20 06:19:20;;;;;;;101.75;30.05;;;6.30;99.90;;;;;;5045452;28;20120;-67
2022/10/20 06:21:46;;;;;;;106.63;30.38;;;6.30;99.90;;;;;;5048229;28;20483;-67
2022/10/20 06:24:12;;;;;;;99.72;28.70;;;6.30;99.90;;;;;;5042371;28;20135;-66
2022/10/20 06:26:38;;;;;;;105.70;30.02;;;6.40;99.90;;;;;;5046787;28;20404;-67
2022/10/20 06:29:06;;;;;;;101.35;30.10;;;6.40;99.90;;;;;;5042838;28;20586;-66
2022/10/20 06:31:35;;;;;;;115.32;31.90;;;6.40;99.90;;;;;;5050491;28;20123;-67
2022/10/20 06:34:04;;;;;;;102.95;30.48;;;6.40;99.90;;;;;;5050097;28;20040;-66
2022/10/20 06:36:32;;;;;;;112.03;30.92;;;6.40;99.90;;;;;;5046226;28;20045;-65
2022/10/20 06:38:58;;;;;;;119.43;32.08;;;6.50;99.90;;;;;;5042389;28;20595;-66
2022/10/20 06:41:25;;;;;;;106.47;31.98;;;6.50;99.90;;;;;;5046651;28;20040;-66
2022/10/20 06:43:58;;;;;;;112.72;31.60;;;6.50;99.90;;;;;;5050032;28;20060;-65
2022/10/20 06:46:28;;;;;;;105.20;31.75;;;6.50;99.90;;;;;;5043806;28;20056;-66
2022/10/20 06:48:54;;;;;;;121.40;33.10;;;6.60;99.90;;;;;;5048930;28;20048;-66
2022/10/20 06:51:23;;;;;;;113.18;30.88;;;6.60;99.90;;;;;;5046750;28;20400;-66
2022/10/20 06:53:49;;;;;;;112.70;32.55;;;6.60;99.90;;;;;;5045365;28;20127;-65
2022/10/20 06:56:21;;;;;;;109.47;32.63;;;6.60;99.90;;;;;;5076469;28;20089;-65
2022/10/20 06:58:49;;;;;;;108.05;31.13;;;6.70;99.90;;;;;;5045912;28;20080;-66
2022/10/20 07:01:22;;;;;;;113.35;31.33;;;6.70;99.90;;;;;;5043054;28;20052;-65
2022/10/20 07:03:49;;;;;;;107.40;31.80;;;6.70;99.90;;;;;;5039526;28;20049;-66
2022/10/20 07:06:17;;;;;;;108.07;32.42;;;6.70;99.90;;;;;;5049412;28;20037;-65
2022/10/20 07:08:43;;;;;;;111.55;32.40;;;6.80;99.90;;;;;;5039064;28;20038;-65
2022/10/20 07:11:18;;;;;;;106.68;31.73;;;6.80;99.90;;;;;;5043260;28;20405;-66
2022/10/20 07:13:43;;;;;;;104.20;30.33;;;6.90;99.90;;;;;;5047031;28;20389;-65
2022/10/20 07:16:15;;;;;;;105.03;32.17;;;7.00;99.90;;;;;;5048773;28;20039;-65
2022/10/20 07:18:46;;;;;;;111.45;32.75;;;6.90;99.90;;;;;;5048010;28;20045;-66
2022/10/20 07:21:14;;;;;;;101.30;31.02;;;7.00;99.90;;;;;;5047253;28;20045;-66
2022/10/20 07:23:40;;;;;;;106.85;30.80;;;7.00;99.90;;;;;;5048009;28;20041;-66
2022/10/20 07:26:15;;;;;;;112.95;33.40;;;7.00;99.90;;;;;;5045833;28;20053;-66
2022/10/20 07:28:43;;;;;;;107.35;30.40;;;7.00;99.90;;;;;;5047044;28;20044;-66
2022/10/20 07:31:11;;;;;;;102.50;30.95;;;7.10;99.90;;;;;;5047249;28;20089;-65
2022/10/20 07:33:37;;;;;;;101.50;31.17;;;7.10;99.90;;;;;;5080346;28;20059;-67
2022/10/20 07:36:22;;;;;;;100.95;30.98;;;7.20;99.90;;;;;;5041100;28;20041;-66
2022/10/20 07:38:50;;;;;;;104.28;30.77;;;7.20;99.90;;;;;;5041090;28;20049;-67
2022/10/20 07:41:16;;;;;;;106.22;30.88;;;7.30;99.90;;;;;;5049406;28;20095;-67
2022/10/20 07:43:42;;;;;;;101.50;31.40;;;7.30;99.90;;;;;;5074092;28;20045;-66
2022/10/20 07:46:09;;;;;;;104.78;31.48;;;7.30;99.90;;;;;;5047583;28;20036;-67
2022/10/20 07:48:34;;;;;;;105.03;30.50;;;7.50;99.90;;;;;;5051166;28;20492;-67
2022/10/20 07:51:29;;;;;;;104.93;32.25;;;7.40;99.90;;;;;;5052727;28;20084;-67
2022/10/20 07:54:07;;;;;;;93.25;31.17;;;7.50;99.90;;;;;;5051147;28;20065;-67
2022/10/20 07:56:36;;;;;;;98.90;31.02;;;7.60;99.90;;;;;;5050478;28;20496;-66
2022/10/20 07:59:02;;;;;;;99.60;31.08;;;7.70;99.90;;;;;;5044774;28;20033;-66
2022/10/20 08:01:27;;;;;;;103.47;31.27;;;7.70;99.90;;;;;;5051616;28;20041;-67
2022/10/20 08:03:53;;;;;;;97.07;31.33;;;7.80;99.90;;;;;;5050474;28;20048;-66
2022/10/20 08:06:19;;;;;;;101.15;31.25;;;7.90;99.90;;;;;;5046533;28;20237;-67
2022/10/20 08:08:44;;;;;;;99.82;31.17;;;8.00;99.90;;;;;;5041142;28;20037;-66
2022/10/20 08:11:10;;;;;;;97.85;31.92;;;8.00;99.90;;;;;;5051341;28;20033;-66
2022/10/20 08:13:38;;;;;;;95.07;31.08;;;8.10;99.90;;;;;;5044236;28;20084;-66
2022/10/20 08:16:04;;;;;;;94.40;31.10;;;8.20;99.90;;;;;;5047830;28;20070;-66
2022/10/20 08:18:29;;;;;;;91.93;30.85;;;8.20;99.90;;;;;;5048457;28;20041;-67
2022/10/20 08:21:12;;;;;;;91.18;30.15;;;8.30;99.90;;;;;;5052051;28;20131;-66
2022/10/20 08:23:40;;;;;;;95.18;30.08;;;8.30;99.90;;;;;;5034325;28;20041;-66
2022/10/20 08:26:06;;;;;;;86.57;29.55;;;8.40;99.90;;;;;;5052438;28;20079;-67
2022/10/20 08:28:31;;;;;;;90.05;30.67;;;8.40;99.90;;;;;;5047408;28;20072;-66
2022/10/20 08:30:57;;;;;;;87.95;29.58;;;8.50;99.90;;;;;;5050452;28;20565;-66
2022/10/20 08:33:23;;;;;;;84.13;28.33;;;8.60;99.90;;;;;;5052080;28;20056;-66
2022/10/20 08:35:48;;;;;;;82.55;28.92;;;8.70;99.90;;;;;;5045412;28;20037;-66
2022/10/20 08:38:14;;;;;;;88.80;29.83;;;8.80;99.90;;;;;;5043651;28;20036;-66
2022/10/20 08:40:41;;;;;;;94.00;30.55;;;8.90;99.90;;;;;;5048970;28;20040;-66
2022/10/20 08:43:16;;;;;;;74.78;27.85;;;8.90;99.90;;;;;;5050261;28;20123;-66
2022/10/20 08:45:41;;;;;;;79.35;28.60;;;9.00;99.90;;;;;;5048596;28;20083;-67
2022/10/20 08:48:15;;;;;;;82.68;27.75;;;9.10;99.90;;;;;;5044138;28;20401;-66
2022/10/20 08:50:44;;;;;;;80.45;28.17;;;9.10;99.90;;;;;;5052606;28;20052;-67
2022/10/20 08:53:11;;;;;;;72.60;27.75;;;9.20;99.90;;;;;;5048303;28;20488;-66
2022/10/20 08:55:36;;;;;;;73.55;26.95;;;9.30;99.90;;;;;;5046071;28;20383;-67
2022/10/20 08:58:05;;;;;;;70.32;26.70;;;9.30;99.90;;;;;;5040074;28;20107;-66
2022/10/20 09:00:34;;;;;;;74.38;26.63;;;9.40;99.90;;;;;;5049987;28;20500;-66
2022/10/20 09:03:10;;;;;;;72.05;26.85;;;9.50;99.90;;;;;;5044983;28;20508;-66
2022/10/20 09:05:39;;;;;;;76.55;26.40;;;9.50;99.90;;;;;;5040859;28;20048;-66
2022/10/20 09:08:04;;;;;;;71.20;25.95;;;9.60;99.90;;;;;;5041954;28;21080;-66
2022/10/20 09:10:38;;;;;;;69.85;26.10;;;9.60;99.90;;;;;;5085727;28;20037;-67
2022/10/20 09:13:24;;;;;;;68.60;26.48;;;9.70;99.90;;;;;;5048761;28;20119;-66
2022/10/20 09:15:52;;;;;;;68.90;24.85;;;9.80;99.90;;;;;;5051626;28;20491;-67
2022/10/20 09:18:19;;;;;;;68.03;26.73;;;9.80;99.90;;;;;;5051138;28;20043;-67
2022/10/20 09:20:56;;;;;;;64.00;25.08;;;9.90;99.90;;;;;;5035791;28;20042;-67
2022/10/20 09:23:26;;;;;;;61.13;25.40;;;10.00;99.90;;;;;;5038951;28;20318;-67
2022/10/20 09:25:52;;;;;;;60.10;25.42;;;10.10;99.90;;;;;;5041292;28;20050;-67
2022/10/20 09:28:26;;;;;;;62.05;24.48;;;10.20;99.90;;;;;;5050623;28;20055;-67
2022/10/20 09:30:53;;;;;;;66.85;23.95;;;10.30;99.90;;;;;;5050364;28;20037;-66
2022/10/20 09:33:21;;;;;;;63.20;24.23;;;10.40;99.90;;;;;;5046148;28;20045;-67
2022/10/20 09:35:47;;;;;;;63.72;24.20;;;10.40;99.90;;;;;;5040119;28;20103;-66
2022/10/20 09:38:21;;;;;;;55.72;24.00;;;10.50;99.90;;;;;;5047016;28;20143;-67
2022/10/20 09:41:18;;;;;;;55.95;23.92;;;10.50;99.90;;;;;;5049601;28;20056;-67
2022/10/20 09:44:07;;;;;;;50.28;22.58;;;10.60;99.90;;;;;;5036020;28;20053;-67
2022/10/20 09:46:45;;;;;;;58.95;23.10;;;10.60;99.90;;;;;;5048527;28;20526;-66
2022/10/20 09:49:34;;;;;;;54.45;23.77;;;10.70;99.90;;;;;;5027491;28;20094;-67
2022/10/20 09:52:01;;;;;;;58.78;23.15;;;10.70;99.90;;;;;;5037154;28;20041;-66
2022/10/20 09:54:28;;;;;;;50.38;21.75;;;10.80;99.90;;;;;;5043125;28;20427;-67
2022/10/20 09:57:04;;;;;;;51.20;22.40;;;10.80;99.90;;;;;;5032468;28;20053;-67
2022/10/20 09:59:39;;;;;;;50.45;22.48;;;10.90;99.90;;;;;;5049035;28;20049;-67
2022/10/20 10:02:14;;;;;;;54.28;22.95;;;10.90;99.90;;;;;;5083433;28;20411;-67
2022/10/20 10:04:43;;;;;;;51.80;23.38;;;11.00;99.90;;;;;;5049267;28;20480;-68
2022/10/20 10:07:32;;;;;;;50.25;22.33;;;11.10;99.90;;;;;;5073405;28;20488;-68
2022/10/20 10:10:00;;;;;;;49.17;21.92;;;11.20;99.90;;;;;;5049391;28;20057;-67
2022/10/20 10:12:27;;;;;;;52.30;21.83;;;11.30;99.90;;;;;;5037285;28;20373;-68
2022/10/20 10:14:59;;;;;;;47.08;21.77;;;11.40;99.90;;;;;;5040017;28;20080;-67
2022/10/20 10:17:32;;;;;;;50.57;22.00;;;11.50;99.90;;;;;;5045526;28;20048;-67
2022/10/20 10:19:58;;;;;;;54.25;22.10;;;11.60;99.90;;;;;;5048960;28;20435;-68
2022/10/20 10:22:24;;;;;;;48.97;22.00;;;11.70;99.90;;;;;;5049823;28;20512;-68
2022/10/20 10:24:53;;;;;;;45.95;21.20;;;11.60;99.90;;;;;;5042973;28;20048;-69
2022/10/20 10:27:24;;;;;;;45.70;21.38;;;11.70;99.90;;;;;;5036874;28;20395;-68
2022/10/20 10:29:50;;;;;;;49.50;21.75;;;11.70;99.90;;;;;;5039995;28;20048;-67
2022/10/20 10:32:16;;;;;;;44.63;20.30;;;11.80;99.90;;;;;;5048379;28;20041;-68
2022/10/20 10:35:06;;;;;;;51.95;22.05;;;11.80;99.90;;;;;;5048353;28;20033;-68
2022/10/20 10:37:33;;;;;;;49.47;21.98;;;11.90;99.90;;;;;;5047691;28;20088;-68
2022/10/20 10:40:00;;;;;;;48.13;21.67;;;11.90;99.90;;;;;;5048548;28;20074;-67
2022/10/20 10:42:59;;;;;;;45.28;21.65;;;12.00;99.90;;;;;;5049333;28;20036;-68
2022/10/20 10:45:39;;;;;;;44.90;21.55;;;12.10;99.90;;;;;;5047885;28;20047;-68
2022/10/20 10:48:17;;;;;;;45.58;21.67;;;12.20;99.90;;;;;;5048012;28;20504;-69
2022/10/20 10:51:01;;;;;;;54.30;22.13;;;12.20;99.90;;;;;;5045396;28;20045;-69
2022/10/20 10:53:38;;;;;;;46.95;21.48;;;12.30;99.90;;;;;;5047114;28;20045;-68
2022/10/20 10:56:27;;;;;;;44.95;21.40;;;12.40;99.90;;;;;;5048500;28;20061;-69
2022/10/20 10:59:10;;;;;;;42.03;20.52;;;12.50;99.90;;;;;;5037161;28;20037;-67
2022/10/20 11:01:57;;;;;;;48.25;21.45;;;12.50;99.90;;;;;;5047070;28;20049;-66
2022/10/20 11:04:38;;;;;;;44.85;21.95;;;12.60;99.90;;;;;;5047371;28;20072;-66
2022/10/20 11:07:12;;;;;;;46.10;21.92;;;12.60;99.90;;;;;;5048030;28;20387;-68
2022/10/20 11:10:06;;;;;;;45.58;21.75;;;12.60;99.90;;;;;;5036491;28;20467;-66
2022/10/20 11:12:39;;;;;;;47.15;22.95;;;12.70;99.90;;;;;;5029720;28;20110;-67
2022/10/20 11:15:32;;;;;;;45.63;20.80;;;12.70;99.90;;;;;;5046244;28;20140;-67
2022/10/20 11:18:29;;;;;;;53.00;22.02;;;12.70;99.90;;;;;;5080437;28;20416;-67
2022/10/20 11:21:04;;;;;;;41.63;20.77;;;12.70;99.90;;;;;;5033062;28;20037;-66
2022/10/20 11:23:51;;;;;;;48.08;21.55;;;12.70;99.90;;;;;;5038103;28;20056;-67
2022/10/20 11:26:35;;;;;;;42.78;21.98;;;12.70;99.90;;;;;;5046264;28;20045;-67
2022/10/20 11:29:50;;;;;;;44.08;21.02;;;12.70;99.90;;;;;;5041997;28;20064;-67
2022/10/20 11:32:19;;;;;;;46.85;21.35;;;12.70;99.90;;;;;;5039188;28;20139;-66
2022/10/20 11:34:59;;;;;;;44.35;20.60;;;12.80;99.90;;;;;;5046190;28;20430;-66
2022/10/20 11:37:28;;;;;;;49.00;21.80;;;12.80;99.90;;;;;;5081587;28;20446;-67
2022/10/20 11:40:20;;;;;;;45.67;21.20;;;12.80;99.90;;;;;;5079412;28;20456;-67
2022/10/20 11:42:56;;;;;;;50.42;21.83;;;12.70;99.90;;;;;;5048321;28;20514;-68
2022/10/20 11:45:31;;;;;;;46.22;21.48;;;12.80;99.90;;;;;;5038956;28;20049;-67
2022/10/20 11:48:22;;;;;;;43.58;21.08;;;12.70;99.90;;;;;;5046801;28;20119;-68
2022/10/20 11:51:13;;;;;;;52.80;21.75;;;12.70;99.90;;;;;;5024379;28;20054;-66
2022/10/20 11:53:38;;;;;;;44.78;20.90;;;12.60;99.90;;;;;;5064189;28;20134;-67
2022/10/20 11:56:23;;;;;;;44.55;22.73;;;12.60;99.90;;;;;;5045825;28;20037;-67
2022/10/20 11:59:08;;;;;;;45.10;21.67;;;12.50;99.90;;;;;;5044946;28;20033;-67
2022/10/20 12:01:33;;;;;;;46.83;22.48;;;12.50;99.90;;;;;;5031669;28;20136;-66
2022/10/20 12:04:17;;;;;;;49.15;22.17;;;12.40;99.90;;;;;;5033803;28;20310;-67
2022/10/20 12:07:26;;;;;;;51.45;23.27;;;12.40;99.90;;;;;;5031630;28;20041;-67
2022/10/20 12:10:25;;;;;;;50.05;21.60;;;12.40;99.90;;;;;;5044286;28;20045;-66
2022/10/20 12:13:16;;;;;;;48.47;22.17;;;12.40;99.90;;;;;;5027878;28;20045;-66
2022/10/20 12:15:47;;;;;;;51.13;22.30;;;12.40;99.90;;;;;;5072225;28;20137;-67
2022/10/20 12:18:31;;;;;;;52.47;22.70;;;12.40;99.90;;;;;;5042394;28;20119;-67
2022/10/20 12:21:01;;;;;;;51.83;23.17;;;12.50;99.90;;;;;;5049455;28;20064;-67
2022/10/20 12:23:42;;;;;;;57.40;23.15;;;12.40;99.90;;;;;;5046326;28;20476;-67
2022/10/20 12:26:31;;;;;;;56.33;23.40;;;12.40;99.90;;;;;;5051464;28;20443;-67
2022/10/20 12:28:58;;;;;;;54.80;23.50;;;12.40;99.90;;;;;;5040949;28;20395;-66
2022/10/20 12:31:24;;;;;;;59.78;23.65;;;12.40;99.90;;;;;;5045735;28;20045;-66
2022/10/20 12:33:53;;;;;;;51.65;22.77;;;12.40;99.90;;;;;;5045945;28;20052;-66
2022/10/20 12:36:18;;;;;;;52.97;23.02;;;12.40;99.90;;;;;;5051813;28;20044;-66
2022/10/20 12:38:50;;;;;;;58.75;23.13;;;12.40;99.90;;;;;;5049926;28;20460;-66
2022/10/20 12:41:35;;;;;;;59.17;23.85;;;12.40;99.90;;;;;;5050280;28;20377;-66
2022/10/20 12:44:04;;;;;;;59.05;24.85;;;12.40;99.90;;;;;;5049649;28;20044;-66
2022/10/20 12:46:32;;;;;;;54.80;23.55;;;12.30;99.90;;;;;;5044579;28;20033;-66
2022/10/20 12:49:01;;;;;;;66.68;25.88;;;12.30;99.90;;;;;;5035362;28;20064;-65
2022/10/20 12:51:45;;;;;;;63.50;25.40;;;12.30;99.90;;;;;;5048046;28;20048;-66